Time;durP1;ratioP1;P1;durP2;ratioP2;P2;SDS_P1;SDS_P2;PMS_P1;PMS_P2;Temp;Humidity;BMP_temperature;BMP_pressure;BME280_temperature;BME280_humidity;BME280_pressure;Samples;Min_cycle;Max_cycle;Signal;HPM_P1;HPM_P2
2023/07/20 00:00:08;;;;;;;7.13;2.47;;;;;;;-144.73;100.00;54415.91;5063901;28;20025;-72
2023/07/20 00:02:34;;;;;;;6.22;2.95;;;;;;;-144.73;100.00;54420.00;5064371;28;20035;-72
2023/07/20 00:04:59;;;;;;;5.10;2.22;;;;;;;-144.73;100.00;54432.31;5045123;28;20032;-73
2023/07/20 00:07:25;;;;;;;5.03;2.35;;;;;;;-144.73;100.00;54411.81;5045997;28;20020;-72
2023/07/20 00:09:50;;;;;;;10.18;2.72;;;;;;;-144.73;100.00;54395.38;5067516;28;20067;-72
2023/07/20 00:12:16;;;;;;;7.18;2.25;;;;;;;-144.73;100.00;54428.22;5041281;28;20109;-72
2023/07/20 00:14:46;;;;;;;7.47;2.38;;;;;;;-144.73;100.00;54420.00;5041785;28;20060;-72
2023/07/20 00:17:12;;;;;;;5.88;2.13;;;;;;;-144.73;100.00;54428.22;5043121;28;20419;-73
2023/07/20 00:19:37;;;;;;;9.20;2.15;;;;;;;-144.73;100.00;54440.53;5035394;28;20082;-72
2023/07/20 00:22:04;;;;;;;5.68;2.38;;;;;;;-144.73;100.00;54452.84;5047591;28;20049;-72
2023/07/20 00:24:30;;;;;;;11.27;3.08;;;;;;;-144.73;100.00;54415.91;5060718;28;20033;-72
2023/07/20 00:26:56;;;;;;;7.43;2.30;;;;;;;-144.73;100.00;54395.38;5061770;28;20032;-73
2023/07/20 00:29:24;;;;;;;2.88;1.75;;;;;;;-144.73;100.00;54420.00;5066181;28;20029;-73
2023/07/20 00:31:53;;;;;;;5.03;2.13;;;;;;;-144.73;100.00;54407.69;5052559;28;20020;-73
2023/07/20 00:34:20;;;;;;;10.52;1.90;;;;;;;-144.73;100.00;54452.84;5048357;28;20047;-71
2023/07/20 00:36:49;;;;;;;3.38;1.88;;;;;;;-144.73;100.00;54411.81;5047684;28;20028;-72
2023/07/20 00:39:14;;;;;;;5.22;2.22;;;;;;;-144.73;100.00;54444.66;5048694;28;20561;-71
2023/07/20 00:41:40;;;;;;;4.85;2.10;;;;;;;-144.73;100.00;54413.84;5054576;28;20028;-73
2023/07/20 00:44:05;;;;;;;5.22;1.88;;;;;;;-144.73;100.00;54436.44;5065325;28;20028;-71
2023/07/20 00:46:32;;;;;;;3.22;1.92;;;;;;;-144.73;100.00;54409.75;5068147;28;20024;-72
2023/07/20 00:48:58;;;;;;;4.03;1.65;;;;;;;-144.73;100.00;54399.50;5054263;28;20021;-72
2023/07/20 00:51:26;;;;;;;4.57;1.55;;;;;;;-144.73;100.00;54415.91;5062450;28;20525;-72
2023/07/20 00:53:53;;;;;;;5.07;2.10;;;;;;;-144.73;100.00;54456.97;5056711;28;20053;-72
2023/07/20 00:56:19;;;;;;;3.70;2.00;;;;;;;-144.73;100.00;54378.97;5059338;28;20031;-73
2023/07/20 00:58:45;;;;;;;10.80;2.38;;;;;;;-144.73;100.00;54407.69;5067306;28;20098;-73
2023/07/20 01:01:13;;;;;;;4.18;2.22;;;;;;;-144.73;100.00;54452.84;5042597;28;20052;-71
2023/07/20 01:03:39;;;;;;;5.10;2.47;;;;;;;-144.73;100.00;54407.69;5060025;28;20059;-72
2023/07/20 01:06:16;;;;;;;5.75;2.35;;;;;;;-144.73;100.00;54469.28;5042817;28;20064;-72
2023/07/20 01:35:15;;;;;;;8.40;4.07;;;;;;;-144.73;100.00;54442.59;5072869;28;20086;-80
2023/07/20 01:37:44;;;;;;;8.00;4.43;;;;;;;-144.73;100.00;54456.97;5058078;28;20039;-78
2023/07/20 01:40:12;;;;;;;8.90;4.55;;;;;;;-144.73;100.00;54436.44;5042969;28;20028;-79
2023/07/20 01:42:37;;;;;;;8.45;4.57;;;;;;;-144.73;100.00;54397.44;5043318;28;20060;-78
2023/07/20 01:45:03;;;;;;;9.82;4.90;;;;;;;-144.73;100.00;54428.22;5045480;28;20074;-79
2023/07/20 01:47:28;;;;;;;10.05;4.60;;;;;;;-144.73;100.00;54465.16;5040386;28;20025;-79
2023/07/20 01:49:54;;;;;;;14.18;6.15;;;;;;;-144.73;100.00;54461.06;5041093;28;20017;-80
2023/07/20 01:52:19;;;;;;;8.30;5.30;;;;;;;-144.73;100.00;54407.69;5050313;28;20020;-79
2023/07/20 01:54:44;;;;;;;7.93;4.97;;;;;;;-144.73;100.00;54407.69;5045349;28;20028;-79
2023/07/20 01:57:10;;;;;;;8.13;5.18;;;;;;;-144.73;100.00;54440.53;5052987;28;20029;-79
2023/07/20 01:59:35;;;;;;;9.63;5.40;;;;;;;-144.73;100.00;54438.50;5054133;28;20048;-79
2023/07/20 02:02:00;;;;;;;7.30;4.85;;;;;;;-144.73;100.00;54432.31;5067085;28;20029;-78
2023/07/20 02:04:27;;;;;;;11.52;5.40;;;;;;;-144.73;100.00;54424.13;5071423;28;20032;-79
2023/07/20 02:06:52;;;;;;;8.02;4.78;;;;;;;-144.73;100.00;54465.16;5056034;28;20025;-80
2023/07/20 02:09:18;;;;;;;10.48;5.43;;;;;;;-144.73;100.00;54444.66;5057157;28;20050;-79
2023/07/20 02:11:43;;;;;;;12.43;5.00;;;;;;;-144.73;100.00;54432.31;5054616;28;20067;-80
2023/07/20 02:14:39;;;;;;;9.07;5.70;;;;;;;-144.73;100.00;54454.91;5056290;28;20039;-82
2023/07/20 02:17:48;;;;;;;9.10;5.68;;;;;;;-144.73;100.00;54444.66;5061231;28;20044;-82
2023/07/20 02:20:31;;;;;;;11.32;5.70;;;;;;;-144.73;100.00;54461.06;5047047;28;20032;-81
2023/07/20 02:23:03;;;;;;;13.70;6.30;;;;;;;-144.73;100.00;54436.44;5026470;28;20128;-82
2023/07/20 02:25:56;;;;;;;11.40;6.00;;;;;;;-144.73;100.00;54475.44;5042847;28;20047;-82
2023/07/20 02:28:24;;;;;;;13.43;6.50;;;;;;;-144.73;100.00;54436.44;5059455;28;20044;-81
2023/07/20 02:30:50;;;;;;;14.02;6.30;;;;;;;-144.73;100.00;54420.00;5057186;28;20037;-80
2023/07/20 02:33:15;;;;;;;11.35;7.30;;;;;;;-144.73;100.00;54469.28;5050115;28;20029;-81
2023/07/20 02:35:40;;;;;;;10.98;6.47;;;;;;;-144.73;100.00;54473.38;5051937;28;20013;-80
2023/07/20 02:38:06;;;;;;;12.32;6.05;;;;;;;-144.73;100.00;54432.31;5055880;28;20064;-80
2023/07/20 02:40:33;;;;;;;14.07;7.28;;;;;;;-144.73;100.00;54430.28;5075285;28;20042;-79
2023/07/20 02:42:59;;;;;;;11.80;7.57;;;;;;;-144.73;100.00;54440.53;5057675;28;20044;-79
2023/07/20 02:45:24;;;;;;;11.82;6.88;;;;;;;-144.73;100.00;54420.00;5049738;28;20021;-80
2023/07/20 02:47:50;;;;;;;9.30;6.50;;;;;;;-144.73;100.00;54428.22;5069044;28;20036;-79
2023/07/20 02:50:15;;;;;;;12.70;7.50;;;;;;;-144.73;100.00;54430.28;5054697;28;20028;-77
2023/07/20 02:52:40;;;;;;;11.40;7.20;;;;;;;-144.73;100.00;54428.22;5069933;28;20040;-79
2023/07/20 02:55:06;;;;;;;13.13;8.60;;;;;;;-144.73;100.00;54440.53;5048906;28;20039;-79
2023/07/20 02:57:32;;;;;;;17.85;7.38;;;;;;;-144.73;100.00;54473.38;5044583;28;20480;-79
2023/07/20 02:59:57;;;;;;;11.10;6.82;;;;;;;-144.73;100.00;54424.13;5042652;28;20044;-79
2023/07/20 03:02:23;;;;;;;11.63;6.97;;;;;;;-144.73;100.00;54456.97;5038609;28;20111;-78
2023/07/20 03:04:48;;;;;;;10.73;7.43;;;;;;;-144.73;100.00;54477.47;5064296;28;20115;-79
2023/07/20 03:07:14;;;;;;;9.45;6.55;;;;;;;-144.73;100.00;54420.00;5043607;28;20386;-78
2023/07/20 03:09:40;;;;;;;12.60;7.20;;;;;;;-144.73;100.00;54440.53;5062811;28;20024;-79
2023/07/20 03:12:06;;;;;;;10.45;7.30;;;;;;;-144.73;100.00;54456.97;5068996;28;20024;-78
2023/07/20 03:14:32;;;;;;;12.05;6.18;;;;;;;-144.73;100.00;54467.22;5040748;28;20033;-79
2023/07/20 03:16:57;;;;;;;9.05;7.35;;;;;;;-144.73;100.00;54461.06;5051088;28;20078;-78
2023/07/20 03:19:22;;;;;;;9.50;6.70;;;;;;;-144.73;100.00;54415.91;5046424;28;20028;-78
2023/07/20 03:21:48;;;;;;;11.10;6.60;;;;;;;-144.73;100.00;54448.75;5024310;28;20108;-78
2023/07/20 03:24:13;;;;;;;10.70;5.90;;;;;;;-144.73;100.00;54461.06;5046843;28;20040;-79
2023/07/20 03:26:39;;;;;;;12.88;8.15;;;;;;;-144.73;100.00;54471.31;5043591;28;20028;-78
2023/07/20 03:29:06;;;;;;;11.15;7.25;;;;;;;-144.73;100.00;54411.81;5042835;28;20075;-79
2023/07/20 03:31:32;;;;;;;11.75;6.70;;;;;;;-144.73;100.00;54465.16;5058952;28;20036;-78
2023/07/20 03:33:57;;;;;;;15.13;6.80;;;;;;;-144.73;100.00;54420.00;5044608;28;20101;-78
2023/07/20 03:36:23;;;;;;;10.05;6.13;;;;;;;-144.73;100.00;54420.00;5043476;28;20112;-78
2023/07/20 03:38:48;;;;;;;8.68;6.50;;;;;;;-144.73;100.00;54407.69;5048513;28;20037;-78
2023/07/20 03:41:15;;;;;;;10.75;6.85;;;;;;;-144.73;100.00;54452.84;5065873;28;20111;-78
2023/07/20 03:43:41;;;;;;;16.02;7.60;;;;;;;-144.73;100.00;54407.69;5039849;28;20037;-78
2023/07/20 03:46:06;;;;;;;8.43;6.55;;;;;;;-144.73;100.00;54473.38;5062358;28;20035;-78
2023/07/20 03:48:31;;;;;;;7.55;5.78;;;;;;;-144.73;100.00;54452.84;5062387;28;20024;-77
2023/07/20 03:50:57;;;;;;;12.50;6.63;;;;;;;-144.73;100.00;54436.44;5046416;28;20036;-78
2023/07/20 03:53:22;;;;;;;6.85;5.53;;;;;;;-144.73;100.00;54456.97;5041142;28;20095;-78
2023/07/20 03:55:48;;;;;;;10.05;5.78;;;;;;;-144.73;100.00;54481.59;5047686;28;20017;-78
2023/07/20 03:58:14;;;;;;;7.55;5.82;;;;;;;-144.73;100.00;54444.66;5048227;28;20098;-78
2023/07/20 04:00:40;;;;;;;7.28;5.35;;;;;;;-144.73;100.00;54440.53;5041965;28;20021;-78
2023/07/20 04:03:05;;;;;;;6.82;5.07;;;;;;;-144.73;100.00;54487.75;5058918;28;20033;-80
2023/07/20 04:05:31;;;;;;;8.25;5.13;;;;;;;-144.73;100.00;54465.16;5041685;28;20091;-80
2023/07/20 04:07:56;;;;;;;6.85;4.68;;;;;;;-144.73;100.00;54452.84;5042949;28;20025;-78
2023/07/20 04:10:21;;;;;;;12.95;5.72;;;;;;;-144.73;100.00;54465.16;5046422;28;20028;-79
2023/07/20 04:12:47;;;;;;;6.50;5.03;;;;;;;-144.73;100.00;54483.66;5052580;28;20087;-78
2023/07/20 04:15:13;;;;;;;5.72;4.35;;;;;;;-144.73;100.00;54444.66;5052562;28;20059;-78
2023/07/20 04:17:39;;;;;;;7.00;4.80;;;;;;;-144.73;100.00;54463.13;5045111;28;20052;-77
2023/07/20 04:20:06;;;;;;;12.35;5.03;;;;;;;-144.73;100.00;54436.44;5038921;28;20048;-77
2023/07/20 04:22:31;;;;;;;9.75;5.15;;;;;;;-144.73;100.00;54465.16;5043745;28;20048;-78
2023/07/20 04:24:57;;;;;;;8.30;5.55;;;;;;;-144.73;100.00;54469.28;5052738;28;20012;-78
2023/07/20 04:27:22;;;;;;;11.10;5.80;;;;;;;-144.73;100.00;54459.00;5049627;28;20494;-77
2023/07/20 04:29:47;;;;;;;9.65;6.10;;;;;;;-144.73;100.00;54420.00;5060101;28;20016;-77
2023/07/20 04:32:13;;;;;;;8.15;6.07;;;;;;;-144.73;100.00;54432.31;5047386;28;20082;-77
2023/07/20 04:34:39;;;;;;;7.15;4.82;;;;;;;-144.73;100.00;54448.75;5066423;28;20024;-78
2023/07/20 04:37:05;;;;;;;7.65;6.07;;;;;;;-144.73;100.00;54448.75;5048301;28;20048;-77
2023/07/20 04:39:33;;;;;;;11.30;5.70;;;;;;;-144.73;100.00;54461.06;5051757;28;20028;-78
2023/07/20 04:41:59;;;;;;;7.70;5.57;;;;;;;-144.73;100.00;54446.69;5050887;28;20025;-77
2023/07/20 04:44:24;;;;;;;7.22;5.35;;;;;;;-144.73;100.00;54475.44;5041945;28;20112;-77
2023/07/20 04:46:49;;;;;;;6.65;5.85;;;;;;;-144.73;100.00;54440.53;5059668;28;20029;-77
2023/07/20 04:49:15;;;;;;;7.63;6.00;;;;;;;-144.73;100.00;54477.47;5046511;28;20033;-76
2023/07/20 04:51:40;;;;;;;11.20;6.90;;;;;;;-144.73;100.00;54452.84;5051317;28;20023;-77
2023/07/20 04:54:06;;;;;;;8.80;6.28;;;;;;;-144.73;100.00;54452.84;5045991;28;20040;-78
2023/07/20 04:56:31;;;;;;;9.98;5.95;;;;;;;-144.73;100.00;54448.75;5052561;28;20043;-77
2023/07/20 04:58:57;;;;;;;8.60;5.95;;;;;;;-144.73;100.00;54454.91;5050194;28;20056;-78
2023/07/20 05:01:23;;;;;;;7.60;5.32;;;;;;;-144.73;100.00;54434.38;5045167;28;20047;-76
2023/07/20 05:03:49;;;;;;;10.15;5.78;;;;;;;-144.73;100.00;54469.28;5045108;28;20029;-76
2023/07/20 05:06:15;;;;;;;5.82;4.72;;;;;;;-144.73;100.00;54424.13;5046839;28;20032;-76
2023/07/20 05:08:41;;;;;;;8.77;5.45;;;;;;;-144.73;100.00;54444.66;5047831;28;20028;-76
2023/07/20 05:11:07;;;;;;;10.15;5.40;;;;;;;-144.73;100.00;54452.84;5053782;28;20531;-77
2023/07/20 05:13:33;;;;;;;7.80;5.03;;;;;;;-144.73;100.00;54452.84;5054283;28;20028;-77
2023/07/20 05:15:59;;;;;;;7.82;3.88;;;;;;;-144.73;100.00;54450.81;5053156;28;20039;-77
2023/07/20 05:18:24;;;;;;;3.60;2.67;;;;;;;-144.73;100.00;54456.97;5050845;28;20040;-77
2023/07/20 05:20:51;;;;;;;8.80;2.97;;;;;;;-144.73;100.00;54465.16;5047135;28;20445;-77
2023/07/20 05:23:19;;;;;;;6.95;3.03;;;;;;;-144.73;100.00;54498.00;5045111;28;20037;-77
2023/07/20 05:25:47;;;;;;;7.72;2.95;;;;;;;-144.73;100.00;54446.69;5051165;28;20035;-77
2023/07/20 05:28:13;;;;;;;8.52;3.72;;;;;;;-144.73;100.00;54473.38;5040905;28;20036;-77
2023/07/20 05:30:40;;;;;;;5.68;3.05;;;;;;;-144.73;100.00;54481.59;5044503;28;20024;-77
2023/07/20 05:33:05;;;;;;;7.13;3.05;;;;;;;-144.73;100.00;54475.44;5057320;28;20033;-77
2023/07/20 05:35:30;;;;;;;5.10;3.10;;;;;;;-144.73;100.00;54481.59;5055098;28;20024;-77
2023/07/20 05:37:56;;;;;;;4.05;3.00;;;;;;;-144.73;100.00;54477.47;5052311;28;20115;-77
2023/07/20 05:40:22;;;;;;;3.17;2.35;;;;;;;-144.73;100.00;54448.75;5042582;28;20115;-77
2023/07/20 05:42:48;;;;;;;2.28;2.05;;;;;;;-144.73;100.00;54420.00;5055363;28;20033;-77
2023/07/20 05:45:14;;;;;;;7.95;2.33;;;;;;;-144.73;100.00;54489.81;5044792;28;20021;-76
2023/07/20 05:47:41;;;;;;;4.72;2.28;;;;;;;-144.73;100.00;54461.06;5046086;28;20032;-76
2023/07/20 05:50:07;;;;;;;6.32;2.30;;;;;;;-144.73;100.00;54493.91;5055805;28;20021;-77
2023/07/20 05:52:33;;;;;;;3.53;1.95;;;;;;;-144.73;100.00;54485.69;5054185;28;20048;-77
2023/07/20 05:54:58;;;;;;;5.85;2.53;;;;;;;-144.73;100.00;54440.53;5066542;28;20036;-76
2023/07/20 05:57:24;;;;;;;3.25;2.38;;;;;;;-144.73;100.00;54473.38;5047710;28;20036;-76
2023/07/20 05:59:49;;;;;;;4.93;2.92;;;;;;;-144.73;100.00;54461.06;5054309;28;20016;-76
2023/07/20 06:02:16;;;;;;;3.88;2.05;;;;;;;-144.73;100.00;54500.06;5046938;28;20057;-75
2023/07/20 06:04:41;;;;;;;7.25;3.13;;;;;;;-144.73;100.00;54498.00;5042001;28;20016;-77
2023/07/20 06:07:07;;;;;;;12.02;2.10;;;;;;;-144.73;100.00;54463.13;5045680;28;20039;-77
2023/07/20 06:09:33;;;;;;;4.78;2.40;;;;;;;-144.73;100.00;54465.16;5047670;28;20040;-76
2023/07/20 06:11:59;;;;;;;2.47;1.60;;;;;;;-144.73;100.00;54448.75;5050788;28;20016;-77
2023/07/20 06:14:25;;;;;;;9.27;2.00;;;;;;;-144.73;100.00;54485.69;5073262;28;20064;-77
2023/07/20 06:16:50;;;;;;;7.15;2.22;;;;;;;-144.73;100.00;54479.53;5066020;28;20434;-77
2023/07/20 06:19:16;;;;;;;7.35;2.17;;;;;;;-144.73;100.00;54481.59;5056254;28;20037;-77
2023/07/20 06:21:42;;;;;;;8.20;2.30;;;;;;;-144.73;100.00;54463.13;5055924;28;20084;-76
2023/07/20 06:24:07;;;;;;;2.78;1.85;;;;;;;-144.73;100.00;54420.00;5050443;28;20039;-76
2023/07/20 06:26:39;;;;;;;3.67;2.33;;;;;;;-144.73;100.00;54424.13;5071877;28;20051;-76
2023/07/20 06:29:07;;;;;;;4.57;1.80;;;;;;;-144.73;100.00;54456.97;5073302;28;20108;-76
2023/07/20 06:31:33;;;;;;;5.32;2.15;;;;;;;-144.73;100.00;54448.75;5047270;28;20061;-75
2023/07/20 06:33:59;;;;;;;6.32;1.83;;;;;;;-144.73;100.00;54444.66;5051330;28;20136;-75
2023/07/20 06:36:25;;;;;;;9.88;2.53;;;;;;;-144.73;100.00;54407.69;5053899;28;20478;-75
2023/07/20 06:38:51;;;;;;;7.85;2.03;;;;;;;-144.73;100.00;54465.16;5054866;28;20059;-75
2023/07/20 06:41:17;;;;;;;4.75;2.35;;;;;;;-144.73;100.00;54452.84;5068805;28;20060;-74
2023/07/20 06:43:42;;;;;;;21.85;2.60;;;;;;;-144.73;100.00;54469.28;5052913;28;20028;-75
2023/07/20 06:46:08;;;;;;;7.00;2.10;;;;;;;-144.73;100.00;54477.47;5044558;28;20029;-75
2023/07/20 06:48:33;;;;;;;13.48;2.63;;;;;;;-144.73;100.00;54436.44;5037743;28;20033;-75
2023/07/20 06:50:59;;;;;;;3.33;1.85;;;;;;;-144.73;100.00;54450.81;5054363;28;20020;-75
2023/07/20 06:53:24;;;;;;;7.10;1.58;;;;;;;-144.73;100.00;54461.06;5054454;28;20115;-75
2023/07/20 06:55:49;;;;;;;4.72;1.25;;;;;;;-144.73;100.00;54440.53;5052396;28;20020;-74
2023/07/20 06:58:15;;;;;;;7.05;1.48;;;;;;;-144.73;100.00;54432.31;5051713;28;20037;-75
2023/07/20 07:00:40;;;;;;;2.85;1.25;;;;;;;-144.73;100.00;54456.97;5053738;28;20059;-75
2023/07/20 07:03:07;;;;;;;3.42;1.35;;;;;;;-144.73;100.00;54456.97;5049557;28;20045;-76
2023/07/20 07:05:37;;;;;;;5.68;1.40;;;;;;;-144.73;100.00;54452.84;5051313;28;20028;-76
2023/07/20 07:08:03;;;;;;;3.75;1.17;;;;;;;-144.73;100.00;54456.97;5061580;28;20037;-75
2023/07/20 07:10:28;;;;;;;7.22;1.55;;;;;;;-144.73;100.00;54477.47;5050697;28;20017;-75
2023/07/20 07:12:54;;;;;;;6.60;1.40;;;;;;;-144.73;100.00;54420.00;5054736;28;20033;-76
2023/07/20 07:15:20;;;;;;;2.60;1.23;;;;;;;-144.73;100.00;54432.31;5057640;28;20066;-75
2023/07/20 07:17:46;;;;;;;10.38;1.20;;;;;;;-144.73;100.00;54440.53;5050129;28;20040;-75
2023/07/20 07:20:11;;;;;;;8.25;1.65;;;;;;;-144.73;100.00;54448.75;5048649;28;20056;-76
2023/07/20 07:22:37;;;;;;;8.45;1.58;;;;;;;-144.73;100.00;54420.00;5044704;28;20068;-76
2023/07/20 07:25:03;;;;;;;4.32;1.60;;;;;;;-144.73;100.00;54440.53;5051705;28;20016;-75
2023/07/20 07:27:28;;;;;;;5.30;1.55;;;;;;;-144.73;100.00;54448.75;5051329;28;20016;-75
2023/07/20 07:29:55;;;;;;;6.30;1.75;;;;;;;-144.73;100.00;54489.81;5043054;28;20017;-75
2023/07/20 07:32:20;;;;;;;7.10;1.67;;;;;;;-144.73;100.00;54448.75;5049340;28;20032;-75
2023/07/20 07:34:47;;;;;;;9.90;1.65;;;;;;;-144.73;100.00;54436.44;5041839;28;20020;-75
2023/07/20 07:37:13;;;;;;;6.72;2.10;;;;;;;-144.73;100.00;54387.19;5047564;28;20031;-75
2023/07/20 07:39:38;;;;;;;6.30;1.60;;;;;;;-144.73;100.00;54448.75;5044629;28;20009;-75
2023/07/20 07:42:04;;;;;;;4.43;1.55;;;;;;;-144.73;100.00;54444.66;5049701;28;20102;-74
2023/07/20 07:44:29;;;;;;;10.45;2.17;;;;;;;-144.73;100.00;54362.53;5043462;28;20032;-75
2023/07/20 07:46:58;;;;;;;8.23;2.22;;;;;;;-144.73;100.00;54424.13;5046427;28;20079;-74
2023/07/20 07:49:24;;;;;;;14.20;2.60;;;;;;;-144.73;100.00;54440.53;5050992;28;20144;-75
2023/07/20 07:51:49;;;;;;;9.57;2.00;;;;;;;-144.73;100.00;54473.38;5047915;28;20107;-75
2023/07/20 07:54:15;;;;;;;8.48;2.13;;;;;;;-144.73;100.00;54444.66;5068584;28;20544;-74
2023/07/20 07:56:40;;;;;;;8.68;2.47;;;;;;;-144.73;100.00;54465.16;5045363;28;20463;-75
2023/07/20 07:59:06;;;;;;;9.52;3.42;;;;;;;-144.73;100.00;54440.53;5064389;28;20040;-74
2023/07/20 08:01:32;;;;;;;7.95;2.45;;;;;;;-144.73;100.00;54428.22;5051576;28;20118;-74
2023/07/20 08:03:57;;;;;;;7.40;2.25;;;;;;;-144.73;100.00;54440.53;5052557;28;20024;-74
2023/07/20 08:06:23;;;;;;;7.60;2.33;;;;;;;-144.73;100.00;54424.13;5052541;28;20117;-74
2023/07/20 08:08:49;;;;;;;11.23;2.40;;;;;;;-144.73;100.00;54428.22;5045010;28;20033;-73
2023/07/20 08:11:14;;;;;;;9.63;3.03;;;;;;;-144.73;100.00;54378.97;5047486;28;20051;-74
2023/07/20 08:13:39;;;;;;;7.22;2.50;;;;;;;-144.73;100.00;54395.38;5041962;28;20025;-74
2023/07/20 08:16:05;;;;;;;10.60;3.08;;;;;;;-144.73;100.00;54471.31;5044102;28;20027;-74
2023/07/20 08:18:31;;;;;;;9.57;2.50;;;;;;;-144.73;100.00;54436.44;5059074;28;20037;-74
2023/07/20 08:20:57;;;;;;;14.80;2.60;;;;;;;-144.73;100.00;54395.38;5058754;28;20154;-74
2023/07/20 08:23:22;;;;;;;9.82;2.75;;;;;;;-144.73;100.00;54432.31;5045467;28;20123;-74
2023/07/20 08:25:48;;;;;;;8.90;2.88;;;;;;;-144.73;100.00;54424.13;5063923;28;20048;-74
2023/07/20 08:28:15;;;;;;;11.85;3.03;;;;;;;-144.73;100.00;54407.69;5067640;28;20029;-74
2023/07/20 08:30:43;;;;;;;10.15;2.90;;;;;;;-144.73;100.00;54434.38;5051163;28;20076;-74
2023/07/20 08:33:20;;;;;;;7.45;2.78;;;;;;;-144.73;100.00;54395.38;5051657;28;20033;-74
2023/07/20 08:35:46;;;;;;;7.47;2.58;;;;;;;-144.73;100.00;54366.66;5045110;28;20099;-74
2023/07/20 08:38:12;;;;;;;15.10;3.20;;;;;;;-144.73;100.00;54409.75;5045450;28;20080;-74
2023/07/20 08:40:47;;;;;;;9.65;2.70;;;;;;;-144.73;100.00;54395.38;5028234;28;20049;-74
2023/07/20 08:43:18;;;;;;;6.82;2.50;;;;;;;-144.73;94.94;54391.28;5065106;28;20051;-74
2023/07/20 08:45:48;;;;;;;14.00;2.92;;;;;;;-144.73;92.29;54399.50;5043817;28;20037;-75
2023/07/20 08:48:15;;;;;;;14.93;2.47;;;;;;;-144.73;92.88;54436.44;5040162;28;20037;-74
2023/07/20 08:50:41;;;;;;;7.93;2.33;;;;;;;-144.73;88.19;54358.44;5050952;28;20034;-75
2023/07/20 08:53:06;;;;;;;9.70;2.42;;;;;;;-144.73;90.30;54342.03;5038760;28;20043;-75
2023/07/20 08:55:32;;;;;;;13.43;3.28;;;;;;;-144.73;88.16;54424.13;5043254;28;20023;-74
2023/07/20 08:58:00;;;;;;;11.88;2.83;;;;;;;-144.73;89.82;54444.66;5048663;28;20059;-74
2023/07/20 09:00:26;;;;;;;13.25;3.40;;;;;;;-144.73;97.90;54463.13;5047608;28;20036;-74
2023/07/20 09:02:55;;;;;;;8.48;2.80;;;;;;;-144.73;100.00;54420.00;5038671;28;20086;-74
2023/07/20 09:05:23;;;;;;;8.63;3.17;;;;;;;-144.73;100.00;54387.19;5037063;28;20032;-74
2023/07/20 09:07:49;;;;;;;8.75;2.70;;;;;;;-144.73;100.00;54378.97;5044003;28;20028;-74
2023/07/20 09:10:14;;;;;;;12.00;3.13;;;;;;;-144.73;100.00;54362.53;5044710;28;20088;-74
2023/07/20 09:12:41;;;;;;;12.55;3.70;;;;;;;-144.73;100.00;54407.69;5036091;28;20113;-74
2023/07/20 09:15:08;;;;;;;13.00;3.05;;;;;;;-144.73;100.00;54387.19;5046628;28;20411;-74
2023/07/20 09:17:34;;;;;;;10.48;2.92;;;;;;;-144.73;100.00;54413.84;5045135;28;20166;-75
2023/07/20 09:20:07;;;;;;;9.88;3.17;;;;;;;-144.73;100.00;54424.13;5055387;28;20084;-74
2023/07/20 09:22:33;;;;;;;21.48;3.60;;;;;;;-144.73;99.15;54424.13;5062129;28;20040;-74
2023/07/20 09:24:59;;;;;;;13.07;2.60;;;;;;;-144.73;96.81;54387.19;5046843;28;20013;-74
2023/07/20 09:27:38;;;;;;;10.23;3.28;;;;;;;-144.73;93.52;54415.91;5039230;28;20368;-74
2023/07/20 09:30:06;;;;;;;17.35;3.20;;;;;;;-144.73;100.00;54415.91;5038369;28;20032;-74
2023/07/20 09:32:38;;;;;;;22.88;3.38;;;;;;;-144.73;100.00;54422.06;5037092;28;20036;-75
2023/07/20 09:35:04;;;;;;;11.50;2.42;;;;;;;-144.73;100.00;54473.38;5063610;28;20021;-75
2023/07/20 09:37:33;;;;;;;5.00;1.80;;;;;;;-144.73;100.00;54387.19;5034482;28;20029;-75
2023/07/20 09:39:59;;;;;;;7.45;2.17;;;;;;;-144.73;100.00;54465.16;5039522;28;20021;-73
2023/07/20 09:42:25;;;;;;;5.65;1.73;;;;;;;-144.73;100.00;54448.75;5044559;28;20123;-74
2023/07/20 09:44:52;;;;;;;8.90;2.03;;;;;;;-144.73;100.00;54407.69;5051125;28;20118;-74
2023/07/20 09:47:24;;;;;;;9.23;2.10;;;;;;;-144.73;100.00;54411.81;5044451;28;20036;-73
2023/07/20 09:49:49;;;;;;;8.07;1.83;;;;;;;-144.73;100.00;54461.06;5043993;28;20122;-72
2023/07/20 09:52:15;;;;;;;8.02;1.60;;;;;;;-144.73;100.00;54407.69;5050677;28;20032;-72
2023/07/20 09:54:44;;;;;;;6.25;1.35;;;;;;;-144.73;100.00;54440.53;5043234;28;20039;-72
2023/07/20 09:57:13;;;;;;;10.57;1.60;;;;;;;-144.73;100.00;54411.81;5047417;28;20033;-73
2023/07/20 09:59:39;;;;;;;8.18;1.80;;;;;;;-144.73;100.00;54411.81;5036388;28;20045;-75
2023/07/20 10:02:17;;;;;;;3.78;1.13;;;;;;;-144.73;100.00;54434.38;5042337;28;20044;-75
2023/07/20 10:04:43;;;;;;;3.50;1.10;;;;;;;-144.73;100.00;54432.31;5053888;28;20045;-75
2023/07/20 10:07:13;;;;;;;8.48;1.20;;;;;;;-144.73;100.00;54436.44;5051520;28;20112;-75
2023/07/20 10:09:40;;;;;;;4.60;1.35;;;;;;;-144.73;100.00;54411.81;5056020;28;20040;-75
2023/07/20 10:12:08;;;;;;;2.95;1.02;;;;;;;-144.73;100.00;54395.38;5039928;28;20036;-74
2023/07/20 10:14:43;;;;;;;3.88;1.45;;;;;;;-144.73;100.00;54424.13;5058482;28;20048;-74
2023/07/20 10:17:13;;;;;;;5.30;1.55;;;;;;;-144.73;100.00;54420.00;5034873;28;20049;-74
2023/07/20 10:19:49;;;;;;;12.13;1.73;;;;;;;-144.73;96.83;54407.69;5051387;28;20045;-75
2023/07/20 10:22:19;;;;;;;8.25;1.48;;;;;;;-144.73;95.11;54413.84;5049478;28;20131;-75
2023/07/20 10:24:46;;;;;;;6.70;1.40;;;;;;;-144.73;94.48;54391.28;5064110;28;20104;-76
2023/07/20 10:27:12;;;;;;;10.63;2.00;;;;;;;-144.73;90.53;54432.31;5063495;28;20024;-75
2023/07/20 10:29:40;;;;;;;9.00;1.40;;;;;;;-144.73;90.37;54420.00;5037980;28;20013;-76
2023/07/20 10:32:05;;;;;;;7.25;1.58;;;;;;;-144.73;84.85;54428.22;5042695;28;20053;-76
2023/07/20 10:34:32;;;;;;;5.55;1.60;;;;;;;-144.73;84.84;54389.22;5048565;28;20074;-75
2023/07/20 10:36:57;;;;;;;7.35;1.48;;;;;;;-144.73;84.67;54383.06;5043645;28;20486;-76
2023/07/20 10:39:28;;;;;;;13.18;1.70;;;;;;;-144.73;83.07;54440.53;5048911;28;20052;-75
2023/07/20 10:42:10;;;;;;;10.40;1.67;;;;;;;-144.73;91.62;54424.13;5052064;28;20025;-75
2023/07/20 10:44:42;;;;;;;8.45;1.70;;;;;;;-144.73;95.78;54454.91;5067531;28;20033;-75
2023/07/20 10:47:13;;;;;;;7.18;1.27;;;;;;;-144.73;91.21;54415.91;5062485;28;20052;-74
2023/07/20 10:50:00;;;;;;;3.53;0.98;;;;;;;-144.73;81.64;54391.28;5062557;28;20507;-74
2023/07/20 10:52:25;;;;;;;3.00;0.90;;;;;;;-144.73;76.41;54366.66;5065734;28;20043;-74
2023/07/20 10:54:51;;;;;;;7.70;1.05;;;;;;;-144.73;75.84;54358.44;5058484;28;20024;-73
2023/07/20 10:57:30;;;;;;;5.03;0.98;;;;;;;-144.73;73.29;54397.44;5043529;28;20050;-74
2023/07/20 11:00:10;;;;;;;7.45;1.48;;;;;;;-144.73;73.87;54378.97;5058827;28;20025;-74
2023/07/20 11:03:02;;;;;;;6.18;1.20;;;;;;;-144.73;76.10;54424.13;5047344;28;20028;-73
2023/07/20 11:05:38;;;;;;;8.98;1.60;;;;;;;-144.73;88.09;54413.84;5044955;28;20043;-73
2023/07/20 11:08:06;;;;;;;10.70;1.92;;;;;;;-144.73;94.44;54411.81;5050310;28;20124;-73
2023/07/20 11:10:32;;;;;;;5.18;1.65;;;;;;;-144.73;89.21;54391.28;5041862;28;20024;-73
2023/07/20 11:13:21;;;;;;;8.35;2.00;;;;;;;-144.73;82.05;54350.22;5065050;28;20029;-73
2023/07/20 11:16:07;;;;;;;9.90;1.85;;;;;;;-144.73;78.70;54333.81;5043333;28;20021;-73
2023/07/20 11:18:39;;;;;;;10.80;2.00;;;;;;;-144.73;80.88;54424.13;5053961;28;20029;-73
2023/07/20 11:21:07;;;;;;;4.90;1.30;;;;;;;-144.73;84.96;54436.44;5038623;28;20031;-73
2023/07/20 11:23:33;;;;;;;6.35;1.50;;;;;;;-144.73;90.76;54438.50;5061002;28;20059;-74
2023/07/20 11:26:00;;;;;;;13.25;1.40;;;;;;;-144.73;90.32;54417.97;5048290;28;20039;-74
2023/07/20 11:28:25;;;;;;;7.82;1.20;;;;;;;-144.73;91.13;54452.84;5051933;28;20033;-73
2023/07/20 11:30:53;;;;;;;5.45;1.10;;;;;;;-144.73;87.82;54358.44;5070136;28;20028;-74
2023/07/20 11:33:19;;;;;;;8.25;1.35;;;;;;;-144.73;84.79;54387.19;5053083;28;20029;-73